createdAt,value
2018-12-24T00:02:28.797Z,94736.70
2018-12-24T00:04:58.386Z,94734.08
2018-12-24T00:07:27.993Z,94728.92
2018-12-24T00:09:57.590Z,94735.66
2018-12-24T00:12:27.267Z,94725.02
2018-12-24T00:14:56.866Z,94726.66
2018-12-24T00:17:26.482Z,94719.74
2018-12-24T00:19:57.307Z,94712.84
2018-12-24T00:22:26.915Z,94708.32
2018-12-24T00:24:56.515Z,94717.14
2018-12-24T00:27:26.123Z,94698.67
2018-12-24T00:29:55.710Z,94698.22
2018-12-24T00:32:26.075Z,94696.97
2018-12-24T00:34:55.667Z,94685.52
2018-12-24T00:37:25.285Z,94690.41
2018-12-24T00:39:55.109Z,94659.41
2018-12-24T00:42:24.725Z,94664.16
2018-12-24T00:44:54.524Z,94673.34
2018-12-24T00:47:24.179Z,94659.50
2018-12-24T00:49:53.789Z,94669.80
2018-12-24T00:52:23.645Z,94657.89
2018-12-24T00:55:12.581Z,94659.06
2018-12-24T00:57:42.213Z,94691.88
2018-12-24T01:00:11.870Z,94663.13
2018-12-24T01:02:41.481Z,94655.00
2018-12-24T01:05:11.157Z,94637.41
2018-12-24T01:07:40.745Z,94650.79
2018-12-24T01:13:30.705Z,94639.66
2018-12-24T01:16:00.358Z,94653.09
2018-12-24T01:18:29.936Z,94640.65
2018-12-24T01:20:59.421Z,94648.62
2018-12-24T01:23:28.931Z,94640.25
2018-12-24T01:25:58.486Z,94625.48
2018-12-24T01:28:27.968Z,94645.86
2018-12-24T01:30:57.473Z,94638.97
2018-12-24T01:33:26.991Z,94647.43
2018-12-24T01:35:56.469Z,94639.80
2018-12-24T01:38:25.976Z,94631.46
2018-12-24T01:40:55.577Z,94633.77
2018-12-24T01:43:25.046Z,94636.72
2018-12-24T01:45:54.542Z,94628.52
2018-12-24T01:48:24.056Z,94595.31
2018-12-24T01:50:53.566Z,94607.17
2018-12-24T01:53:23.035Z,94619.11
2018-12-24T01:55:52.612Z,94593.95
2018-12-24T01:58:22.115Z,94612.80
2018-12-24T02:00:51.610Z,94604.17
2018-12-24T02:03:22.345Z,94591.77
2018-12-24T02:06:30.273Z,94594.06
2018-12-24T02:08:59.786Z,94598.43
2018-12-24T02:11:29.279Z,94600.36
2018-12-24T02:13:58.788Z,94611.12
2018-12-24T02:16:28.328Z,94604.69
2018-12-24T02:18:57.830Z,94591.14
2018-12-24T02:21:27.330Z,94563.64
2018-12-24T02:23:56.840Z,94566.92
2018-12-24T02:26:26.390Z,94544.41
2018-12-24T02:28:55.892Z,94533.45
2018-12-24T02:31:25.382Z,94535.72
2018-12-24T02:33:55.181Z,94507.30
2018-12-24T02:36:24.673Z,94512.84
2018-12-24T02:38:54.244Z,94511.23
2018-12-24T02:41:23.746Z,94504.34
2018-12-24T02:43:53.233Z,94516.36
2018-12-24T02:46:22.742Z,94516.41
2018-12-24T02:48:52.237Z,94490.98
2018-12-24T02:51:21.745Z,94493.60
2018-12-24T02:53:51.320Z,94491.80
2018-12-24T02:56:22.046Z,94489.05
2018-12-24T02:58:51.590Z,94481.86
2018-12-24T03:01:21.062Z,94474.61
2018-12-24T03:03:50.551Z,94469.02
2018-12-24T03:06:20.055Z,94467.95
2018-12-24T03:08:50.786Z,94478.62
2018-12-24T03:11:20.299Z,94462.06
2018-12-24T03:13:49.788Z,94455.01
2018-12-24T03:16:19.291Z,94471.30
2018-12-24T03:18:48.783Z,94476.84
2018-12-24T03:21:19.443Z,94479.95
2018-12-24T03:23:48.928Z,94493.27
2018-12-24T03:26:18.429Z,94470.03
2018-12-24T03:28:47.921Z,94476.30
2018-12-24T03:31:17.429Z,94474.69
2018-12-24T03:33:47.531Z,94475.44
2018-12-24T03:36:17.212Z,94470.06
2018-12-24T03:39:06.696Z,94468.86
2018-12-24T03:41:36.245Z,94466.92
2018-12-24T03:44:05.744Z,94456.44
2018-12-24T03:46:35.244Z,94473.97
2018-12-24T03:49:04.793Z,94465.42
2018-12-24T03:51:34.301Z,94480.03
2018-12-24T03:54:03.792Z,94459.59
2018-12-24T03:56:33.295Z,94459.06
2018-12-24T03:59:02.774Z,94460.41
2018-12-24T04:01:32.252Z,94480.61
2018-12-24T04:04:01.752Z,94481.16
2018-12-24T04:06:31.248Z,94490.44
2018-12-24T04:09:00.729Z,94487.68
2018-12-24T04:11:30.242Z,94507.97
2018-12-24T04:13:59.730Z,94521.47
2018-12-24T04:16:29.267Z,94541.89
2018-12-24T04:18:58.774Z,94645.91
2018-12-24T04:21:28.253Z,94677.57
2018-12-24T04:23:57.799Z,94681.97
2018-12-24T04:26:27.315Z,94683.48
2018-12-24T04:28:56.797Z,94679.85
2018-12-24T04:31:26.306Z,94692.06
2018-12-24T04:33:55.791Z,94703.66
2018-12-24T04:36:25.336Z,94701.88
2018-12-24T04:39:14.245Z,94704.79
2018-12-24T04:41:43.744Z,94598.49
2018-12-24T04:44:32.580Z,94717.65
2018-12-24T04:47:02.099Z,94720.73
2018-12-24T04:49:50.928Z,94725.09
2018-12-24T04:52:20.431Z,94733.56
2018-12-24T04:54:49.973Z,94752.77
2018-12-24T04:57:19.472Z,94765.48
2018-12-24T04:59:48.961Z,94778.34
2018-12-24T05:02:18.445Z,94794.75
2018-12-24T05:04:47.951Z,94814.83
2018-12-24T05:07:18.689Z,94825.69
2018-12-24T05:09:48.174Z,94821.72
2018-12-24T05:12:17.690Z,94829.48
2018-12-24T05:14:47.180Z,94832.91
2018-12-24T05:17:16.678Z,94834.98
2018-12-24T05:19:47.222Z,94847.00
2018-12-24T05:22:16.898Z,94869.36
2018-12-24T05:24:46.391Z,94883.16
2018-12-24T05:27:15.887Z,94904.09
2018-12-24T05:33:06.959Z,94926.16
2018-12-24T05:35:36.457Z,94951.03
2018-12-24T05:38:06.005Z,94968.16
2018-12-24T05:40:35.462Z,94987.42
2018-12-24T05:43:04.967Z,94996.86
2018-12-24T05:45:34.460Z,95022.41
2018-12-24T05:48:04.167Z,95038.84
2018-12-24T05:50:33.897Z,95055.20
2018-12-24T05:53:03.454Z,95071.70
2018-12-24T05:55:33.024Z,95088.59
2018-12-24T05:58:02.534Z,95092.08
2018-12-24T06:00:32.096Z,95097.19
2018-12-24T06:03:01.857Z,95119.17
2018-12-24T06:05:32.578Z,95137.34
2018-12-24T06:08:02.100Z,95150.56
2018-12-24T06:10:31.580Z,95167.72
2018-12-24T06:13:01.079Z,95183.83
2018-12-24T06:15:30.562Z,95198.16
2018-12-24T06:18:01.202Z,95206.16
2018-12-24T06:20:37.663Z,95210.94
2018-12-24T06:23:01.998Z,95219.12
2018-12-24T06:25:31.478Z,95232.22
2018-12-24T06:28:00.978Z,95242.86
2018-12-24T06:30:30.464Z,95253.14
2018-12-24T06:32:59.978Z,95272.41
2018-12-24T06:35:29.482Z,95271.14
2018-12-24T06:37:59.081Z,95287.84
2018-12-24T06:40:28.612Z,95300.29
2018-12-24T06:42:59.402Z,95307.65
2018-12-24T06:45:28.908Z,95323.05
2018-12-24T06:47:58.471Z,95329.62
2018-12-24T06:50:27.953Z,95337.77
2018-12-24T06:52:57.459Z,95339.39
2018-12-24T06:55:27.867Z,95348.98
2018-12-24T06:57:57.373Z,95361.64
2018-12-24T07:00:26.885Z,95372.88
2018-12-24T07:02:56.396Z,95381.86
2018-12-24T07:05:25.883Z,95391.89
2018-12-24T07:07:56.146Z,95398.88
2018-12-24T07:10:25.626Z,95416.34
2018-12-24T07:12:55.130Z,95416.58
2018-12-24T07:15:24.618Z,95427.21
2018-12-24T07:17:54.331Z,95432.77
2018-12-24T07:20:24.337Z,95431.95
2018-12-24T07:22:53.823Z,95442.10
2018-12-24T07:25:23.331Z,95451.91
2018-12-24T07:27:52.837Z,95460.86
2018-12-24T07:30:22.354Z,95463.70
2018-12-24T07:32:52.571Z,95473.38
2018-12-24T07:35:22.132Z,95483.64
2018-12-24T07:37:51.629Z,95496.50
2018-12-24T07:40:21.182Z,95506.88
2018-12-24T07:42:50.688Z,95511.19
2018-12-24T07:45:20.821Z,95515.45
2018-12-24T07:47:50.331Z,95536.34
2018-12-24T07:50:19.815Z,95547.88
2018-12-24T07:52:49.319Z,95553.08
2018-12-24T07:55:18.808Z,95565.81
2018-12-24T07:57:48.917Z,95569.16
2018-12-24T08:00:18.428Z,95578.33
2018-12-24T08:02:47.904Z,95586.01
2018-12-24T08:05:17.401Z,95585.41
2018-12-24T08:07:46.909Z,95593.10
2018-12-24T08:10:17.160Z,95605.95
2018-12-24T08:15:47.421Z,95620.36
2018-12-24T08:18:16.927Z,95633.34
2018-12-24T08:20:47.486Z,95637.84
2018-12-24T08:23:17.081Z,95642.89
2018-12-24T08:25:46.544Z,95644.79
2018-12-24T08:28:16.048Z,95655.55
2018-12-24T08:31:15.884Z,95661.81
2018-12-24T08:34:23.765Z,95455.52
2018-12-24T08:37:06.075Z,95670.52
2018-12-24T08:39:35.566Z,95678.91
2018-12-24T08:42:16.097Z,95678.08
2018-12-24T08:44:45.586Z,95471.91
2018-12-24T08:47:15.090Z,95678.19
2018-12-24T08:49:44.574Z,95685.03
2018-12-24T08:52:14.059Z,95705.11
2018-12-24T08:54:43.638Z,95705.97
2018-12-24T08:57:13.121Z,95717.89
2018-12-24T08:59:43.857Z,95714.35
2018-12-24T09:02:13.338Z,95727.82
2018-12-24T09:04:42.852Z,95733.84
2018-12-24T09:07:12.338Z,95741.04
2018-12-24T09:09:41.882Z,95745.52
2018-12-24T09:12:12.545Z,95741.50
2018-12-24T09:14:50.037Z,95750.97
2018-12-24T09:17:13.251Z,95751.81
2018-12-24T09:19:42.759Z,95749.45
2018-12-24T09:22:12.241Z,95760.08
2018-12-24T09:24:41.745Z,95768.00
2018-12-24T09:27:11.217Z,95769.53
2018-12-24T09:29:40.706Z,95769.84
2018-12-24T09:32:10.191Z,95784.47
2018-12-24T09:34:39.700Z,95783.39
2018-12-24T09:37:09.210Z,95789.44
2018-12-24T09:39:38.705Z,95793.11
2018-12-24T09:42:08.181Z,95794.73
2018-12-24T09:44:37.691Z,95806.66
2018-12-24T09:47:07.184Z,95812.64
2018-12-24T09:49:36.671Z,95811.44
2018-12-24T09:52:06.171Z,95817.94
2018-12-24T09:54:35.674Z,95824.65
2018-12-24T09:57:05.159Z,95825.12
2018-12-24T09:59:34.662Z,95818.97
2018-12-24T10:02:04.215Z,95822.59
2018-12-24T10:04:33.789Z,95827.98
2018-12-24T10:07:05.176Z,95837.46
2018-12-24T10:09:34.770Z,95831.44
2018-12-24T10:12:04.237Z,95832.09
2018-12-24T10:14:33.714Z,95833.09
2018-12-24T10:17:04.212Z,95831.27
2018-12-24T10:19:33.782Z,95831.42
2018-12-24T10:22:03.269Z,95831.20
2018-12-24T10:24:32.774Z,95833.58
2018-12-24T10:27:02.286Z,95832.06
2018-12-24T10:29:32.334Z,95827.11
2018-12-24T10:32:01.816Z,95830.38
2018-12-24T10:34:31.399Z,95828.84
2018-12-24T10:37:00.892Z,95829.56
2018-12-24T10:39:30.428Z,95833.98
2018-12-24T10:42:00.422Z,95836.91
2018-12-24T10:44:29.943Z,95840.01
2018-12-24T10:46:59.429Z,95840.34
2018-12-24T10:49:29.102Z,95845.83
2018-12-24T10:51:58.673Z,95849.13
2018-12-24T10:54:28.656Z,95846.77
2018-12-24T10:56:58.154Z,95843.47
2018-12-24T10:59:27.627Z,95845.23
2018-12-24T11:01:57.130Z,95843.00
2018-12-24T11:04:26.627Z,95854.94
2018-12-24T11:07:15.463Z,95846.77
2018-12-24T11:09:44.951Z,95850.57
2018-12-24T11:12:14.464Z,95854.83
2018-12-24T11:14:43.954Z,95851.98
2018-12-24T11:17:13.538Z,95853.30
2018-12-24T11:19:43.064Z,95854.13
2018-12-24T11:22:31.862Z,95853.53
2018-12-24T11:25:20.713Z,95844.89
2018-12-24T11:27:50.195Z,95845.96
2018-12-24T11:30:19.707Z,95850.23
2018-12-24T11:32:49.186Z,95850.56
2018-12-24T11:35:18.701Z,95847.62
2018-12-24T11:37:48.198Z,95853.30
2018-12-24T11:40:17.723Z,95853.91
2018-12-24T11:43:06.547Z,95856.84
2018-12-24T11:45:36.136Z,95740.14
2018-12-24T11:48:05.601Z,95862.28
2018-12-24T11:50:35.103Z,95853.64
2018-12-24T11:53:04.626Z,95851.30
2018-12-24T11:55:34.159Z,95849.03
2018-12-24T11:58:03.637Z,95849.50
2018-12-24T12:00:33.212Z,95854.95
2018-12-24T12:03:13.676Z,95853.06
2018-12-24T12:05:43.195Z,95851.88
2018-12-24T12:08:12.704Z,95850.13
2018-12-24T12:10:42.275Z,95853.93
2018-12-24T12:13:11.797Z,95858.50
2018-12-24T12:15:42.647Z,95844.45
2018-12-24T12:18:12.617Z,95858.23
2018-12-24T12:20:42.105Z,95851.98
2018-12-24T12:23:30.943Z,95852.17
2018-12-24T12:26:00.454Z,95851.06
2018-12-24T12:28:30.001Z,95854.50
2018-12-24T12:31:18.845Z,95858.96
2018-12-24T12:33:48.333Z,95865.48
2018-12-24T12:36:17.825Z,95869.48
2018-12-24T12:38:47.348Z,95873.88
2018-12-24T12:41:16.834Z,95881.55
2018-12-24T12:43:46.600Z,95882.39
2018-12-24T12:46:16.128Z,95889.48
2018-12-24T12:49:17.767Z,95895.04
2018-12-24T12:51:47.283Z,95891.09
2018-12-24T12:54:36.111Z,95898.22
2018-12-24T12:57:05.627Z,95904.14
2018-12-24T12:59:54.456Z,95913.50
2018-12-24T13:05:37.450Z,95839.78
2018-12-24T13:08:06.979Z,95928.00
2018-12-24T13:10:36.464Z,95935.95
2018-12-24T13:13:05.966Z,95936.80
2018-12-24T13:15:37.414Z,95942.03
2018-12-24T13:18:06.687Z,95949.23
2018-12-24T13:20:36.162Z,95948.52
2018-12-24T13:23:05.758Z,95953.37
2018-12-24T13:25:35.241Z,95962.86
2018-12-24T13:28:24.100Z,95969.91
2018-12-24T13:30:53.579Z,95971.69
2018-12-24T13:33:23.142Z,95980.42
2018-12-24T13:35:52.654Z,95989.72
2018-12-24T13:38:22.174Z,95992.97
2018-12-24T13:40:51.687Z,96001.84
2018-12-24T13:43:21.169Z,95998.82
2018-12-24T13:45:50.684Z,96006.63
2018-12-24T13:48:20.153Z,96008.29
2018-12-24T13:50:49.688Z,96007.95
2018-12-24T13:53:19.210Z,96005.16
2018-12-24T13:56:08.032Z,96014.94
2018-12-24T13:58:37.551Z,96012.25
2018-12-24T14:01:07.036Z,96012.40
2018-12-24T14:03:36.562Z,96018.70
2018-12-24T14:06:06.046Z,96016.39
2018-12-24T14:08:35.841Z,96017.19
2018-12-24T14:11:05.323Z,96022.75
2018-12-24T14:13:54.184Z,96026.88
2018-12-24T14:16:23.680Z,96039.27
2018-12-24T14:18:53.249Z,96047.02
2018-12-24T14:21:22.745Z,96049.62
2018-12-24T14:23:52.513Z,96060.09
2018-12-24T14:26:21.997Z,96057.77
2018-12-24T14:28:51.475Z,96072.48
2018-12-24T14:31:21.002Z,96073.68
2018-12-24T14:33:50.585Z,96070.64
2018-12-24T14:36:20.072Z,96077.95
2018-12-24T14:38:49.590Z,96081.13
2018-12-24T14:41:19.075Z,96071.88
2018-12-24T14:43:48.552Z,96076.02
2018-12-24T14:46:25.408Z,96081.55
2018-12-24T14:48:49.324Z,96092.90
2018-12-24T14:51:18.819Z,96096.50
2018-12-24T14:53:48.349Z,96100.58
2018-12-24T14:56:17.830Z,96111.28
2018-12-24T14:58:47.322Z,96121.73
2018-12-24T15:01:16.845Z,96116.58
2018-12-24T15:03:46.436Z,96121.20
2018-12-24T15:06:15.996Z,96121.00
2018-12-24T15:08:45.505Z,96119.25
2018-12-24T15:11:15.027Z,96118.47
2018-12-24T15:13:44.562Z,96122.22
2018-12-24T15:16:14.029Z,96125.23
2018-12-24T15:18:43.808Z,96128.23
2018-12-24T15:21:13.297Z,96128.70
2018-12-24T15:23:42.775Z,96132.55
2018-12-24T15:26:12.300Z,96133.02
2018-12-24T15:28:41.790Z,96137.88
2018-12-24T15:31:11.281Z,96134.45
2018-12-24T15:33:40.780Z,96140.95
2018-12-24T15:36:10.272Z,96138.65
2018-12-24T15:38:39.813Z,96147.25
2018-12-24T15:41:09.374Z,96152.52
2018-12-24T15:43:38.898Z,96154.83
2018-12-24T15:46:08.392Z,96157.57
2018-12-24T15:48:37.911Z,96162.20
2018-12-24T15:51:07.432Z,96159.66
2018-12-24T15:53:37.008Z,96158.27
2018-12-24T15:56:06.498Z,96161.22
2018-12-24T15:58:36.026Z,96164.50
2018-12-24T16:01:05.505Z,96173.72
2018-12-24T16:03:36.966Z,96182.53
2018-12-24T16:06:06.241Z,96185.02
2018-12-24T16:08:35.822Z,96186.83
2018-12-24T16:11:05.313Z,96186.20
2018-12-24T16:13:34.816Z,96187.06
2018-12-24T16:16:04.301Z,96181.70
2018-12-24T16:18:33.784Z,96192.17
2018-12-24T16:21:03.294Z,96191.06
2018-12-24T16:23:32.777Z,96200.97
2018-12-24T16:26:02.261Z,96203.00
2018-12-24T16:28:31.791Z,96213.58
2018-12-24T16:31:01.274Z,96215.61
2018-12-24T16:33:30.791Z,96224.09
2018-12-24T16:36:00.321Z,96226.78
2018-12-24T16:38:31.126Z,96221.23
2018-12-24T16:41:00.621Z,96228.46
2018-12-24T16:43:30.134Z,96233.42
2018-12-24T16:45:59.627Z,96237.34
2018-12-24T16:48:29.131Z,96231.67
2018-12-24T16:50:59.947Z,96236.88
2018-12-24T16:53:29.434Z,96243.73
2018-12-24T16:55:58.947Z,96236.47
2018-12-24T16:58:28.504Z,96225.06
2018-12-24T17:00:58.270Z,96233.50
2018-12-24T17:03:28.374Z,96245.13
2018-12-24T17:05:57.920Z,96243.91
2018-12-24T17:08:27.406Z,96247.62
2018-12-24T17:10:56.894Z,96239.89
2018-12-24T17:13:26.428Z,96244.70
2018-12-24T17:15:56.680Z,96251.72
2018-12-24T17:18:26.170Z,96248.93
2018-12-24T17:20:58.528Z,96247.39
2018-12-24T17:23:28.004Z,96248.14
2018-12-24T17:25:57.536Z,96247.09
2018-12-24T17:28:27.023Z,96253.77
2018-12-24T17:30:56.784Z,96253.58
2018-12-24T17:33:26.263Z,96253.77
2018-12-24T17:35:55.804Z,96252.28
2018-12-24T17:38:25.320Z,96255.33
2018-12-24T17:40:54.841Z,96265.36
2018-12-24T17:43:24.336Z,96267.09
2018-12-24T17:45:53.875Z,96265.91
2018-12-24T17:48:23.397Z,96270.44
2018-12-24T17:50:52.982Z,96258.23
2018-12-24T17:53:22.467Z,96253.92
2018-12-24T17:55:52.237Z,96256.64
2018-12-24T17:58:21.723Z,96263.20
2018-12-24T18:00:51.204Z,96260.78
2018-12-24T18:03:20.729Z,96270.72
2018-12-24T18:05:50.272Z,96269.67
2018-12-24T18:08:19.774Z,96274.69
2018-12-24T18:10:50.588Z,96271.61
2018-12-24T18:13:20.163Z,96278.20
2018-12-24T18:15:49.700Z,96262.81
2018-12-24T18:18:19.183Z,96258.80
2018-12-24T18:20:48.717Z,96257.89
2018-12-24T18:23:18.194Z,96262.43
2018-12-24T18:25:47.720Z,96269.86
2018-12-24T18:28:17.253Z,96270.42
2018-12-24T18:30:46.786Z,96281.14
2018-12-24T18:33:16.274Z,96272.75
2018-12-24T18:35:45.809Z,96281.53
2018-12-24T18:38:15.365Z,96281.45
2018-12-24T18:40:44.903Z,96295.24
2018-12-24T18:43:14.388Z,96301.42
2018-12-24T18:45:43.917Z,96303.86
2018-12-24T18:48:13.470Z,96297.54
2018-12-24T18:50:43.086Z,96307.56
2018-12-24T18:53:12.565Z,96313.09
2018-12-24T18:55:42.105Z,96319.59
2018-12-24T18:58:12.934Z,96319.39
2018-12-24T19:00:42.467Z,96322.16
2018-12-24T19:03:11.944Z,96323.56
2018-12-24T19:05:41.475Z,96329.12
2018-12-24T19:08:11.086Z,96334.30
2018-12-24T19:10:41.537Z,96338.20
2018-12-24T19:13:11.023Z,96341.44
2018-12-24T19:15:40.548Z,96341.98
2018-12-24T19:18:10.088Z,96337.55
2018-12-24T19:20:39.678Z,96339.28
2018-12-24T19:23:09.621Z,96337.06
2018-12-24T19:25:39.110Z,96343.58
2018-12-24T19:28:08.599Z,96354.41
2018-12-24T19:30:38.122Z,96355.22
2018-12-24T19:33:07.653Z,96354.67
2018-12-24T19:35:37.479Z,96357.54
2018-12-24T19:38:07.212Z,96353.38
2018-12-24T19:40:36.708Z,96357.63
2018-12-24T19:43:06.189Z,96357.16
2018-12-24T19:45:35.783Z,96357.34
2018-12-24T19:48:05.709Z,96355.78
2018-12-24T19:50:35.238Z,96356.14
2018-12-24T19:53:04.729Z,96359.84
2018-12-24T19:55:34.222Z,96358.66
2018-12-24T19:58:03.793Z,96355.60
2018-12-24T20:00:53.316Z,96362.73
2018-12-24T20:03:22.811Z,96245.99
2018-12-24T20:05:52.355Z,96347.64
2018-12-24T20:08:21.840Z,96344.00
2018-12-24T20:10:51.320Z,96345.41
2018-12-24T20:13:20.850Z,96353.84
2018-12-24T20:15:50.388Z,96368.76
2018-12-24T20:18:19.949Z,96372.37
2018-12-24T20:21:09.452Z,96372.01
2018-12-24T20:23:51.844Z,96192.61
2018-12-24T20:26:21.376Z,96370.31
2018-12-24T20:28:50.866Z,96381.52
2018-12-24T20:31:20.393Z,96389.12
2018-12-24T20:33:49.881Z,96404.96
2018-12-24T20:36:19.480Z,96412.81
2018-12-24T20:38:49.062Z,96416.14
2018-12-24T20:41:18.540Z,96419.03
2018-12-24T20:43:48.068Z,96421.83
2018-12-24T20:46:17.558Z,96434.31
2018-12-24T20:48:47.096Z,96435.81
2018-12-24T20:51:16.586Z,96434.69
2018-12-24T20:53:46.111Z,96442.57
2018-12-24T20:56:15.614Z,96437.29
2018-12-24T20:58:45.145Z,96436.34
2018-12-24T21:01:14.631Z,96440.13
2018-12-24T21:04:03.488Z,96441.99
2018-12-24T21:06:33.551Z,96443.75
2018-12-24T21:09:04.802Z,96449.69
2018-12-24T21:11:34.334Z,96449.89
2018-12-24T21:14:03.833Z,96451.74
2018-12-24T21:16:33.351Z,96444.88
2018-12-24T21:19:02.894Z,96443.76
2018-12-24T21:21:32.377Z,96438.03
2018-12-24T21:24:01.913Z,96452.38
2018-12-24T21:26:31.470Z,96453.60
2018-12-24T21:29:01.071Z,96458.69
2018-12-24T21:31:30.606Z,96460.52
2018-12-24T21:34:00.151Z,96456.55
2018-12-24T21:36:29.646Z,96457.19
2018-12-24T21:38:59.177Z,96456.33
2018-12-24T21:41:29.017Z,96452.19
2018-12-24T21:43:58.560Z,96456.34
2018-12-24T21:46:28.042Z,96453.94
2018-12-24T21:48:57.562Z,96449.61
2018-12-24T21:51:27.043Z,96451.54
2018-12-24T21:53:56.559Z,96454.86
2018-12-24T21:56:26.048Z,96458.56
2018-12-24T21:58:55.586Z,96468.20
2018-12-24T22:01:25.143Z,96468.66
2018-12-24T22:03:54.652Z,96477.80
2018-12-24T22:06:24.161Z,96472.73
2018-12-24T22:08:53.678Z,96469.12
2018-12-24T22:11:23.166Z,96471.53
2018-12-24T22:13:52.683Z,96469.39
2018-12-24T22:16:22.180Z,96466.23
2018-12-24T22:18:51.702Z,96481.23
2018-12-24T22:21:21.443Z,96482.33
2018-12-24T22:23:51.839Z,96485.94
2018-12-24T22:26:21.340Z,96490.28
2018-12-24T22:28:50.827Z,96494.48
2018-12-24T22:31:20.367Z,96498.55
2018-12-24T22:33:49.854Z,96490.77
2018-12-24T22:36:20.022Z,96482.81
2018-12-24T22:38:49.599Z,96488.70
2018-12-24T22:41:19.088Z,96487.13
2018-12-24T22:43:48.596Z,96488.35
2018-12-24T22:46:18.078Z,96488.00
2018-12-24T22:48:48.383Z,96481.13
2018-12-24T22:51:17.874Z,96479.63
2018-12-24T22:53:47.390Z,96463.31
2018-12-24T22:56:16.883Z,96458.48
2018-12-24T22:58:46.391Z,96457.32
2018-12-24T23:01:16.667Z,96460.19
2018-12-24T23:03:46.268Z,96460.95
2018-12-24T23:06:15.739Z,96467.44
2018-12-24T23:08:45.284Z,96465.27
2018-12-24T23:11:14.775Z,96466.95
2018-12-24T23:13:44.807Z,96463.94
2018-12-24T23:16:14.296Z,96467.55
2018-12-24T23:18:49.366Z,96468.11
2018-12-24T23:24:22.854Z,96470.31
2018-12-24T23:26:52.357Z,96476.44
2018-12-24T23:29:21.865Z,96479.59
2018-12-24T23:31:51.353Z,96477.35
2018-12-24T23:34:20.845Z,96482.53
2018-12-24T23:36:50.347Z,96491.77
2018-12-24T23:39:19.810Z,96490.83
2018-12-24T23:41:49.303Z,96504.91
2018-12-24T23:44:18.801Z,96500.28
2018-12-24T23:46:48.288Z,96491.53
2018-12-24T23:49:17.798Z,96489.81
2018-12-24T23:51:47.280Z,96490.83
2018-12-24T23:54:17.063Z,96499.39
2018-12-24T23:56:46.555Z,96503.77
2018-12-24T23:59:16.036Z,96497.19
